Time;durP1;ratioP1;P1;durP2;ratioP2;P2;SDS_P1;SDS_P2;PMS_P1;PMS_P2;Temp;Humidity;BMP_temperature;BMP_pressure;BME280_temperature;BME280_humidity;BME280_pressure;Samples;Min_cycle;Max_cycle;Signal;HPM_P1;HPM_P2
2022/04/03 00:02:45;;;;;;;4.80;3.03;;;;;;;-3.04;72.53;102101.22;10463500;28;20524;-79
2022/04/03 00:07:46;;;;;;;6.00;2.03;;;;;;;-3.64;73.58;102110.13;10496680;28;20480;-79
2022/04/03 00:12:47;;;;;;;6.63;2.87;;;;;;;-4.02;75.30;102106.25;10480000;28;20027;-79
2022/04/03 00:17:48;;;;;;;9.10;3.20;;;;;;;-4.20;76.53;102108.31;10498286;28;20036;-79
2022/04/03 00:22:49;;;;;;;5.80;2.60;;;;;;;-4.24;77.74;102113.78;10497125;28;20500;-78
2022/04/03 00:27:50;;;;;;;4.43;2.45;;;;;;;-4.27;79.75;102108.28;10478383;28;20025;-78
2022/04/03 00:32:50;;;;;;;5.93;2.97;;;;;;;-4.32;79.98;102110.25;10480918;28;20487;-78
2022/04/03 00:37:51;;;;;;;8.40;3.87;;;;;;;-4.53;80.19;102108.44;10496228;28;20032;-78
2022/04/03 00:42:51;;;;;;;6.67;3.37;;;;;;;-4.68;80.01;102106.47;10479172;28;20020;-78
2022/04/03 00:47:53;;;;;;;5.47;2.47;;;;;;;-4.87;80.32;102112.69;10478626;28;20059;-78
2022/04/03 00:52:54;;;;;;;9.50;4.38;;;;;;;-4.83;81.45;102115.66;10478242;28;20111;-78
2022/04/03 00:57:57;;;;;;;7.03;3.27;;;;;;;-5.03;81.33;102109.78;10496376;28;20024;-78
2022/04/03 01:02:57;;;;;;;6.40;3.13;;;;;;;-5.00;82.18;102114.38;10460684;28;20086;-78
2022/04/03 01:07:58;;;;;;;9.37;4.60;;;;;;;-5.05;83.08;102123.06;10478957;28;20466;-78
2022/04/03 01:12:58;;;;;;;3.93;2.80;;;;;;;-5.09;82.66;102115.75;10477832;28;20123;-78
2022/04/03 01:17:59;;;;;;;7.50;3.70;;;;;;;-5.13;82.46;102116.97;10493876;28;20064;-78
2022/04/03 01:23:00;;;;;;;4.13;2.60;;;;;;;-5.26;82.77;102118.63;10477614;28;20601;-78
2022/04/03 01:28:01;;;;;;;8.40;3.42;;;;;;;-5.33;83.57;102112.72;10476046;28;20502;-78
2022/04/03 01:33:01;;;;;;;5.13;2.47;;;;;;;-5.41;83.34;102108.25;10495002;28;20127;-78
2022/04/03 01:38:02;;;;;;;7.87;3.63;;;;;;;-5.55;83.47;102106.44;10493666;28;20024;-78
2022/04/03 01:43:03;;;;;;;5.67;3.30;;;;;;;-5.54;83.93;102109.91;10496450;28;20032;-78
2022/04/03 01:48:04;;;;;;;13.35;4.05;;;;;;;-5.59;84.47;102111.88;10495265;28;20575;-78
2022/04/03 01:53:05;;;;;;;6.28;2.88;;;;;;;-5.43;84.21;102103.69;10494676;28;20124;-78
2022/04/03 01:58:08;;;;;;;4.13;2.83;;;;;;;-5.40;83.71;102109.19;10495372;28;20044;-78
2022/04/03 02:03:09;;;;;;;6.07;2.97;;;;;;;-5.52;83.95;102095.72;10464968;28;20032;-78
2022/04/03 02:08:10;;;;;;;9.13;4.22;;;;;;;-5.47;83.54;102098.16;10484228;28;20028;-78
2022/04/03 02:13:11;;;;;;;5.30;3.30;;;;;;;-5.60;83.88;102093.06;10503629;28;20099;-78
2022/04/03 02:18:12;;;;;;;6.13;3.13;;;;;;;-5.56;84.01;102102.06;10502213;28;20056;-79
2022/04/03 02:23:13;;;;;;;8.02;3.47;;;;;;;-5.52;84.04;102100.81;10503084;28;20464;-78
2022/04/03 02:28:13;;;;;;;5.63;3.17;;;;;;;-5.61;84.16;102097.97;10502794;28;20036;-78
2022/04/03 02:33:14;;;;;;;5.47;3.57;;;;;;;-5.63;84.13;102102.88;10501679;28;20491;-78
2022/04/03 02:38:16;;;;;;;6.57;3.30;;;;;;;-5.81;84.54;102110.63;10482937;28;20028;-78
2022/04/03 02:43:16;;;;;;;10.43;4.22;;;;;;;-5.90;84.79;102107.78;10483417;28;20036;-78
2022/04/03 02:48:17;;;;;;;12.83;3.93;;;;;;;-5.84;85.32;102097.47;10500269;28;20040;-78
2022/04/03 02:53:17;;;;;;;6.47;3.73;;;;;;;-5.78;85.50;102100.84;10502644;28;20024;-78
2022/04/03 02:58:18;;;;;;;6.90;4.90;;;;;;;-5.83;84.96;102099.31;10495447;28;20076;-77
2022/04/03 03:03:18;;;;;;;9.93;5.33;;;;;;;-5.94;85.30;102101.34;10501271;28;20056;-78
2022/04/03 03:08:19;;;;;;;9.87;5.73;;;;;;;-5.98;85.18;102104.22;10499688;28;20067;-77
2022/04/03 03:13:19;;;;;;;11.20;6.73;;;;;;;-6.03;85.02;102100.16;10465857;28;20492;-78
2022/04/03 03:18:20;;;;;;;8.40;5.73;;;;;;;-5.87;86.42;102107.28;10498675;28;20052;-76
2022/04/03 03:23:20;;;;;;;10.13;6.17;;;;;;;-5.95;85.98;102113.91;10500451;28;20067;-77
2022/04/03 03:28:21;;;;;;;13.10;6.00;;;;;;;-5.92;86.65;102119.44;10500129;28;20071;-78
2022/04/03 03:33:21;;;;;;;11.63;6.37;;;;;;;-6.05;86.37;102111.78;10498895;28;20069;-77
2022/04/03 03:38:22;;;;;;;9.70;6.23;;;;;;;-6.11;86.51;102111.91;10481158;28;20067;-78
2022/04/03 03:43:22;;;;;;;11.27;5.83;;;;;;;-6.12;86.87;102107.53;10500843;28;20052;-78
2022/04/03 03:48:23;;;;;;;14.60;6.13;;;;;;;-6.00;86.32;102113.28;10481159;28;20068;-78
2022/04/03 03:53:24;;;;;;;9.75;5.13;;;;;;;-6.06;86.26;102118.53;10481552;28;20434;-78
2022/04/03 03:58:25;;;;;;;13.30;5.97;;;;;;;-6.18;86.15;102122.00;10497894;28;20040;-78
2022/04/03 04:03:25;;;;;;;10.17;5.50;;;;;;;-6.26;86.87;102127.69;10479039;28;20064;-78
2022/04/03 04:08:26;;;;;;;11.37;5.93;;;;;;;-6.29;86.81;102135.81;10464349;28;20484;-78
2022/04/03 04:13:26;;;;;;;9.00;4.60;;;;;;;-6.41;86.85;102141.81;10486671;28;20035;-78
2022/04/03 04:18:27;;;;;;;8.17;4.77;;;;;;;-6.44;86.42;102133.75;10497162;28;20067;-78
2022/04/03 04:23:27;;;;;;;6.73;4.43;;;;;;;-6.41;87.38;102136.69;10496343;28;20063;-78
2022/04/03 04:28:28;;;;;;;8.53;4.90;;;;;;;-6.39;87.16;102143.88;10478885;28;20380;-78
2022/04/03 04:33:28;;;;;;;7.80;4.20;;;;;;;-6.29;87.87;102138.38;10478557;28;20132;-78
2022/04/03 04:38:29;;;;;;;9.07;4.80;;;;;;;-6.31;87.39;102142.34;10491952;28;20063;-78
2022/04/03 04:43:30;;;;;;;9.93;6.03;;;;;;;-6.38;87.63;102143.16;10453235;28;20029;-78
2022/04/03 04:48:30;;;;;;;7.07;4.40;;;;;;;-6.38;87.71;102153.34;10459144;28;20049;-78
2022/04/03 04:53:31;;;;;;;10.23;4.57;;;;;;;-6.28;87.62;102152.94;10466406;28;20037;-77
2022/04/03 04:58:31;;;;;;;15.10;8.33;;;;;;;-6.38;87.50;102166.09;10453915;28;20060;-78
2022/04/03 05:03:32;;;;;;;8.30;5.40;;;;;;;-6.31;87.31;102162.72;10478324;28;20039;-79
2022/04/03 05:08:32;;;;;;;7.87;4.47;;;;;;;-6.26;87.31;102161.72;10506557;28;20357;-77
2022/04/03 05:13:33;;;;;;;7.93;5.53;;;;;;;-6.31;87.17;102179.66;10478712;28;20085;-78
2022/04/03 05:18:37;;;;;;;14.80;7.20;;;;;;;-6.32;87.79;102181.28;10475851;28;20032;-78
2022/04/03 05:23:38;;;;;;;10.80;5.47;;;;;;;-6.20;87.92;102177.84;10475845;28;20426;-78
2022/04/03 05:28:40;;;;;;;7.68;4.88;;;;;;;-6.09;88.80;102179.31;10473939;28;20056;-77
2022/04/03 05:33:41;;;;;;;;;;;;;;;-6.00;88.56;102183.81;10519674;28;20028;-77
2022/04/03 05:38:41;;;;;;;9.90;5.40;;;;;;;-5.87;88.78;102184.72;10514329;28;19917;-78
2022/04/03 05:43:42;;;;;;;7.57;3.90;;;;;;;-5.65;88.51;102196.13;10494108;28;20025;-76
2022/04/03 05:48:42;;;;;;;10.57;5.83;;;;;;;-5.42;88.80;102192.28;10491855;28;20605;-75
2022/04/03 05:53:43;;;;;;;12.70;6.20;;;;;;;-5.16;88.69;102196.63;10490383;28;20036;-76
2022/04/03 05:58:43;;;;;;;12.57;5.53;;;;;;;-4.77;88.77;102196.53;10492095;28;20068;-76
2022/04/03 06:03:44;;;;;;;7.43;4.30;;;;;;;-3.60;88.06;102201.03;10493483;28;20129;-76
2022/04/03 06:08:44;;;;;;;8.25;3.47;;;;;;;-1.06;80.34;102192.88;10473429;28;20052;-76
2022/04/03 06:13:45;;;;;;;5.70;4.25;;;;;;;1.80;67.80;102197.22;10472666;28;20042;-77
2022/04/03 06:18:45;;;;;;;7.65;4.43;;;;;;;4.01;58.40;102196.63;10465523;28;20068;-76
2022/04/03 06:23:46;;;;;;;8.73;3.17;;;;;;;5.46;53.91;102195.19;10481611;28;20110;-76
2022/04/03 06:28:46;;;;;;;6.68;3.70;;;;;;;6.21;49.50;102187.00;10469088;28;20032;-78
2022/04/03 06:33:47;;;;;;;6.30;3.13;;;;;;;6.20;48.26;102186.09;10461750;28;20384;-77
2022/04/03 06:38:47;;;;;;;6.65;3.22;;;;;;;5.87;49.50;102178.06;10472240;28;20519;-78
2022/04/03 06:43:48;;;;;;;6.82;4.10;;;;;;;6.14;50.70;102186.47;10485493;28;20101;-78
2022/04/03 06:48:49;;;;;;;4.97;3.50;;;;;;;7.41;48.22;102177.00;10441524;28;20492;-78
2022/04/03 06:53:49;;;;;;;7.10;3.67;;;;;;;8.49;43.68;102185.56;10494126;28;20036;-78
2022/04/03 06:58:50;;;;;;;8.68;4.25;;;;;;;8.45;44.70;102179.97;10494236;28;20064;-78
2022/04/03 07:03:50;;;;;;;6.03;4.25;;;;;;;8.67;43.54;102182.56;10497252;28;20056;-78
2022/04/03 07:08:51;;;;;;;7.60;3.35;;;;;;;9.09;43.15;102183.09;10495824;28;20066;-78
2022/04/03 07:13:51;;;;;;;7.63;3.35;;;;;;;8.64;42.66;102192.75;10490612;28;20056;-78
2022/04/03 07:18:52;;;;;;;5.15;3.17;;;;;;;8.18;43.69;102193.56;10464204;28;20032;-78
2022/04/03 07:23:52;;;;;;;7.85;4.70;;;;;;;9.76;41.31;102183.59;10495121;28;20480;-78
2022/04/03 07:28:53;;;;;;;6.38;2.55;;;;;;;11.86;35.81;102180.25;10449926;28;20143;-79
2022/04/03 07:33:53;;;;;;;4.72;2.80;;;;;;;11.98;36.03;102181.81;10494307;28;20024;-78
2022/04/03 07:38:54;;;;;;;4.97;3.05;;;;;;;12.59;35.27;102178.56;10484160;28;20041;-78
2022/04/03 07:43:54;;;;;;;5.13;2.42;;;;;;;13.30;33.08;102181.81;10462229;28;20036;-80
2022/04/03 07:48:55;;;;;;;5.85;2.67;;;;;;;13.39;32.59;102187.59;10487476;28;20064;-81
2022/04/03 07:53:56;;;;;;;5.32;2.72;;;;;;;14.88;29.96;102192.13;10494171;28;20464;-81
2022/04/03 07:58:56;;;;;;;6.90;3.38;;;;;;;13.86;32.64;102192.84;10486092;28;20025;-78
2022/04/03 08:03:57;;;;;;;6.28;2.28;;;;;;;13.47;31.35;102199.50;10493708;28;20071;-78
2022/04/03 08:08:57;;;;;;;6.07;2.28;;;;;;;13.08;31.79;102196.34;10474429;28;20444;-77
2022/04/03 08:13:58;;;;;;;6.07;2.75;;;;;;;12.91;31.81;102198.88;10484106;28;20052;-77
2022/04/03 08:19:00;;;;;;;4.72;2.58;;;;;;;13.87;31.55;102192.03;10469541;28;20038;-78
2022/04/03 08:24:01;;;;;;;6.18;2.38;;;;;;;12.96;32.59;102203.50;10493189;28;20029;-78
2022/04/03 08:29:02;;;;;;;5.88;2.00;;;;;;;12.80;32.74;102206.94;10475650;28;20476;-78
2022/04/03 08:34:02;;;;;;;4.53;2.22;;;;;;;10.65;34.42;102208.09;10473032;28;20119;-78
2022/04/03 08:39:03;;;;;;;5.78;3.28;;;;;;;13.04;33.36;102199.59;10496254;28;20388;-78
2022/04/03 08:44:07;;;;;;;4.53;1.75;;;;;;;12.15;33.74;102211.75;10477682;28;20112;-78
2022/04/03 08:49:08;;;;;;;7.53;2.25;;;;;;;12.42;32.91;102212.59;10437475;28;20041;-78
2022/04/03 08:54:09;;;;;;;2.95;2.05;;;;;;;13.77;30.27;102209.06;10460904;28;20075;-79
2022/04/03 08:59:10;;;;;;;2.70;2.23;;;;;;;13.21;31.70;102211.13;10461273;28;20043;-77
2022/04/03 09:04:10;;;;;;;2.30;1.60;;;;;;;11.04;34.14;102215.97;10490365;28;20094;-78
2022/04/03 09:09:20;;;;;;;2.33;1.33;;;;;;;9.78;36.15;102226.47;10475309;28;20044;-77
2022/04/03 09:14:21;;;;;;;2.83;1.10;;;;;;;9.96;37.17;102225.97;10433285;28;20097;-79
2022/04/03 09:19:31;;;;;;;2.05;1.13;;;;;;;12.22;35.58;102206.09;10428645;28;20065;-78
2022/04/03 09:24:34;;;;;;;4.95;1.20;;;;;;;14.45;31.10;102204.84;10469682;28;20075;-77
2022/04/03 09:29:35;;;;;;;3.55;1.55;;;;;;;15.55;29.95;102204.22;10452856;28;20037;-78
2022/04/03 09:34:35;;;;;;;4.32;1.38;;;;;;;14.66;29.98;102202.41;10480859;28;20052;-78
2022/04/03 09:39:36;;;;;;;3.13;2.00;;;;;;;12.66;33.73;102211.34;10473303;28;20605;-78
2022/04/03 09:44:38;;;;;;;4.50;1.20;;;;;;;15.28;29.69;102202.03;10493468;28;20055;-78
2022/04/03 09:49:39;;;;;;;2.20;1.25;;;;;;;16.44;29.24;102202.22;10477270;28;20071;-78
2022/04/03 09:54:40;;;;;;;3.60;1.77;;;;;;;17.15;28.81;102182.31;10476983;28;20037;-78
2022/04/03 09:59:47;;;;;;;2.30;1.10;;;;;;;14.73;30.35;102190.50;10475584;28;20024;-78
2022/04/03 10:04:48;;;;;;;9.23;2.53;;;;;;;15.44;30.77;102185.22;10457839;28;20040;-78
2022/04/03 10:09:52;;;;;;;3.92;1.50;;;;;;;15.59;30.91;102179.78;10476361;28;20059;-78
2022/04/03 10:14:53;;;;;;;3.65;1.45;;;;;;;15.71;29.45;102174.19;10460087;28;20373;-78
2022/04/03 10:19:53;;;;;;;3.30;2.50;;;;;;;18.39;26.81;102154.44;10474430;28;20080;-79
2022/04/03 10:24:56;;;;;;;3.70;2.60;;;;;;;15.55;27.86;102160.25;10500215;28;20056;-78
2022/04/03 10:29:57;;;;;;;2.78;1.15;;;;;;;10.97;35.09;102175.34;10483442;28;20159;-78
2022/04/03 10:34:59;;;;;;;7.50;2.67;;;;;;;11.75;33.96;102166.44;10466903;28;20031;-78
2022/04/03 10:40:17;;;;;;;;;;;;;;;11.31;35.22;102164.47;10483605;28;20044;-78
2022/04/03 10:45:46;;;;;;;1.85;1.10;;;;;;;14.91;30.62;102153.63;10485491;28;19912;-78
2022/04/03 10:50:56;;;;;;;4.20;1.42;;;;;;;16.09;27.68;102140.78;10482337;28;20052;-78
2022/04/03 10:55:58;;;;;;;2.70;1.20;;;;;;;11.90;35.12;102147.22;10501548;28;20506;-78
2022/04/03 11:01:02;;;;;;;4.60;2.05;;;;;;;10.64;36.34;102148.69;10465423;28;20131;-78
2022/04/03 11:06:36;;;;;;;7.05;1.40;;;;;;;12.66;35.70;102130.84;10449480;28;20020;-78
2022/04/03 11:12:03;;;;;;;4.40;1.30;;;;;;;12.55;32.30;102122.31;10439375;28;20713;-78
2022/04/03 11:17:04;;;;;;;3.25;1.20;;;;;;;9.04;37.07;102132.22;10483734;28;20033;-78
2022/04/03 11:22:04;;;;;;;3.83;1.38;;;;;;;13.00;31.43;102114.44;10498269;28;20107;-79
2022/04/03 11:27:06;;;;;;;3.35;1.00;;;;;;;14.73;28.36;102105.25;10496736;28;20048;-78
2022/04/03 11:32:08;;;;;;;2.42;1.15;;;;;;;12.81;30.32;102106.31;10475123;28;20451;-76
2022/04/03 11:37:13;;;;;;;2.47;1.20;;;;;;;11.98;31.65;102106.63;10493228;28;20029;-78
2022/04/03 11:42:14;;;;;;;5.88;2.97;;;;;;;10.92;35.58;102098.16;10453332;28;20540;-78
2022/04/03 11:47:19;;;;;;;4.75;1.80;;;;;;;9.43;37.70;102095.81;10497731;28;20179;-78
2022/04/03 11:52:20;;;;;;;5.45;1.40;;;;;;;9.59;36.52;102084.78;10498753;28;20369;-78
2022/04/03 11:57:21;;;;;;;1.73;1.20;;;;;;;10.51;37.14;102082.41;10447737;28;20476;-78
2022/04/03 12:02:21;;;;;;;2.15;1.40;;;;;;;10.06;35.46;102086.28;10469902;28;20029;-78
2022/04/03 12:07:22;;;;;;;2.35;1.23;;;;;;;9.19;38.25;102088.94;10480987;28;20111;-78
2022/04/03 12:12:24;;;;;;;3.63;1.55;;;;;;;9.19;40.41;102086.34;10438122;28;20040;-76
2022/04/03 12:17:24;;;;;;;2.22;1.30;;;;;;;11.06;38.32;102072.88;10437549;28;20041;-77
2022/04/03 12:22:25;;;;;;;4.25;1.40;;;;;;;13.31;32.75;102057.41;10476690;28;20484;-77
2022/04/03 12:27:37;;;;;;;2.38;1.10;;;;;;;14.29;32.78;102053.00;10478627;28;20079;-77
2022/04/03 12:32:40;;;;;;;5.43;1.33;;;;;;;12.48;33.98;102062.38;10497029;28;20063;-77
2022/04/03 12:37:41;;;;;;;2.05;0.90;;;;;;;11.49;34.85;102057.28;10497245;28;20036;-77
2022/04/03 12:42:42;;;;;;;2.95;1.15;;;;;;;10.99;35.91;102063.69;10460319;28;20032;-77
2022/04/03 12:47:45;;;;;;;1.75;0.93;;;;;;;10.23;35.07;102059.56;10494476;28;20497;-77
2022/04/03 12:52:48;;;;;;;2.72;0.80;;;;;;;9.17;41.22;102056.56;10448652;28;20033;-77
2022/04/03 13:03:30;;;;;;;2.42;1.30;;;;;;;7.82;43.17;102069.09;10493390;28;20029;-77
2022/04/03 13:08:43;;;;;;;3.75;1.70;;;;;;;8.01;42.79;102061.91;10494621;28;20028;-77
2022/04/03 13:13:44;;;;;;;3.15;1.30;;;;;;;7.54;42.96;102070.41;10484737;28;20029;-77
2022/04/03 13:18:44;;;;;;;5.90;1.35;;;;;;;7.31;43.71;102073.81;10459811;28;20127;-78
2022/04/03 13:23:45;;;;;;;2.10;1.58;;;;;;;7.76;44.77;102056.47;10479261;28;20039;-78
2022/04/03 13:28:45;;;;;;;3.22;1.27;;;;;;;8.03;44.36;102057.72;10444420;28;20032;-78
2022/04/03 13:33:46;;;;;;;3.28;1.15;;;;;;;8.34;43.00;102053.91;10473363;28;20117;-77
2022/04/03 13:38:46;;;;;;;3.35;2.20;;;;;;;8.41;44.40;102045.75;10459292;28;20391;-78
2022/04/03 13:43:47;;;;;;;5.38;1.88;;;;;;;8.66;42.82;102027.66;10473233;28;20028;-78
2022/04/03 13:48:48;;;;;;;3.15;1.88;;;;;;;9.28;40.50;102026.00;10455333;28;20040;-78
2022/04/03 13:53:48;;;;;;;3.45;1.70;;;;;;;9.35;41.00;102017.78;10487793;28;20502;-78
2022/04/03 13:58:51;;;;;;;4.73;1.67;;;;;;;9.28;42.59;102007.69;10466751;28;20045;-79
2022/04/03 14:03:51;;;;;;;3.42;2.05;;;;;;;9.46;42.10;102012.41;10446179;28;20400;-78
2022/04/03 14:08:52;;;;;;;2.10;1.17;;;;;;;9.62;40.88;101993.50;10479402;28;20024;-78
2022/04/03 14:13:53;;;;;;;3.97;1.83;;;;;;;9.75;40.55;102000.47;10469345;28;20071;-78
2022/04/03 14:18:54;;;;;;;3.03;1.63;;;;;;;11.18;39.65;101987.19;10476610;28;20179;-78
2022/04/03 14:23:55;;;;;;;6.00;1.55;;;;;;;12.44;37.18;101965.88;10470649;28;20036;-78
2022/04/03 14:28:56;;;;;;;3.78;1.50;;;;;;;11.30;39.57;101969.63;10484362;28;20024;-78
2022/04/03 14:33:59;;;;;;;6.53;2.97;;;;;;;9.93;41.38;101969.47;10471956;28;20028;-77
2022/04/03 14:39:00;;;;;;;4.90;1.98;;;;;;;8.98;43.08;101964.66;10482197;28;20032;-78
2022/04/03 14:44:02;;;;;;;11.30;2.08;;;;;;;8.61;44.56;101965.47;10481235;28;20029;-77
2022/04/03 14:49:03;;;;;;;;;;;;;;;8.23;44.82;101959.22;10476562;28;20119;-78
2022/04/03 14:54:04;;;;;;;3.03;1.80;;;;;;;8.27;45.03;101957.72;10482629;28;19925;-79
2022/04/03 14:59:04;;;;;;;4.22;1.73;;;;;;;7.87;45.85;101953.06;10473097;28;20029;-80
2022/04/03 15:04:07;;;;;;;3.95;2.25;;;;;;;7.53;46.44;101960.88;10467186;28;20484;-80
2022/04/03 15:09:07;;;;;;;5.32;1.92;;;;;;;7.55;47.58;101969.72;10482380;28;20032;-81
2022/04/03 15:14:08;;;;;;;4.13;2.35;;;;;;;7.44;49.50;101966.28;10469482;28;20048;-80
2022/04/03 15:19:08;;;;;;;4.93;3.63;;;;;;;6.93;54.45;101973.59;10457867;28;20075;-80
2022/04/03 15:24:09;;;;;;;6.82;4.45;;;;;;;7.15;53.37;101983.13;10494967;28;20052;-80
2022/04/03 15:29:09;;;;;;;4.57;3.05;;;;;;;7.19;51.84;101977.38;10481017;28;20460;-80
2022/04/03 15:34:11;;;;;;;4.22;3.83;;;;;;;6.86;52.66;101974.81;10494066;28;20111;-79
2022/04/03 15:39:12;;;;;;;3.88;3.20;;;;;;;7.40;52.17;101972.03;10495694;28;20043;-80
2022/04/03 15:44:12;;;;;;;3.88;3.17;;;;;;;9.45;46.00;101954.03;10484350;28;20448;-80
2022/04/03 15:49:13;;;;;;;4.72;2.88;;;;;;;9.80;45.61;101962.47;10462118;28;20109;-81
2022/04/03 15:54:14;;;;;;;4.60;3.78;;;;;;;9.56;46.26;101952.16;10480686;28;20036;-81
2022/04/03 15:59:14;;;;;;;4.80;3.08;;;;;;;9.08;46.21;101949.72;10478416;28;20115;-81
2022/04/03 16:04:16;;;;;;;3.92;2.47;;;;;;;8.06;49.04;101960.53;10482689;28;20103;-81
2022/04/03 16:09:17;;;;;;;6.67;2.40;;;;;;;7.43;51.87;101959.25;10469387;28;20040;-80
2022/04/03 16:14:17;;;;;;;5.50;2.53;;;;;;;6.69;53.20;101968.22;10471076;28;20045;-81
2022/04/03 16:19:18;;;;;;;7.95;4.70;;;;;;;6.41;55.46;101962.47;10464024;28;20037;-81
2022/04/03 16:24:18;;;;;;;7.38;6.68;;;;;;;6.31;56.16;101963.41;10485867;28;20036;-80
2022/04/03 16:29:19;;;;;;;5.50;3.08;;;;;;;5.94;56.80;101965.50;10489354;28;20110;-80
2022/04/03 16:34:20;;;;;;;6.25;2.95;;;;;;;5.81;57.91;101956.69;10482305;28;20537;-80
2022/04/03 16:39:21;;;;;;;5.03;3.13;;;;;;;5.73;57.18;101956.03;10473103;28;20043;-81
2022/04/03 16:44:22;;;;;;;4.25;2.75;;;;;;;5.85;56.24;101956.16;10458115;28;20480;-79
2022/04/03 16:49:22;;;;;;;3.83;1.85;;;;;;;6.04;55.84;101954.25;10467617;28;20048;-79
2022/04/03 16:54:23;;;;;;;5.80;3.28;;;;;;;5.90;56.26;101951.34;10477817;28;20064;-80
2022/04/03 16:59:24;;;;;;;4.60;2.92;;;;;;;5.75;57.41;101955.25;10462428;28;20170;-80
2022/04/03 17:04:26;;;;;;;4.30;3.05;;;;;;;5.58;56.81;101960.81;10497266;28;20479;-80
2022/04/03 17:09:27;;;;;;;9.27;5.20;;;;;;;5.40;57.10;101960.16;10477353;28;20125;-80
2022/04/03 17:14:27;;;;;;;3.30;1.80;;;;;;;5.29;57.37;101956.63;10491430;28;20544;-82
2022/04/03 17:19:28;;;;;;;5.43;2.00;;;;;;;5.17;57.86;101954.69;10488420;28;20064;-78
2022/04/03 17:24:28;;;;;;;5.63;2.47;;;;;;;5.06;58.17;101967.63;10468380;28;20056;-78
2022/04/03 17:29:39;;;;;;;4.13;2.42;;;;;;;5.08;58.67;101957.38;10475915;28;20040;-80
2022/04/03 17:34:43;;;;;;;3.80;2.30;;;;;;;4.88;58.81;101960.81;10464875;28;20399;-81
2022/04/03 17:39:46;;;;;;;3.40;2.33;;;;;;;4.77;58.55;101954.66;10475744;28;20127;-80
2022/04/03 17:44:48;;;;;;;3.03;2.03;;;;;;;4.66;58.61;101956.31;10488546;28;20028;-80
2022/04/03 17:49:51;;;;;;;3.55;2.72;;;;;;;4.51;59.14;101958.44;10474160;28;20041;-80
2022/04/03 17:54:52;;;;;;;2.65;1.70;;;;;;;4.39;59.28;101953.97;10452861;28;20102;-79
2022/04/03 17:59:53;;;;;;;8.77;2.38;;;;;;;4.31;59.86;101954.97;10457178;28;20047;-79
2022/04/03 18:04:54;;;;;;;9.65;7.00;;;;;;;4.20;60.20;101953.09;10470674;28;20063;-80
2022/04/03 18:09:54;;;;;;;7.28;3.47;;;;;;;4.10;61.16;101959.13;10470308;28;20052;-80
2022/04/03 18:14:55;;;;;;;5.13;2.83;;;;;;;3.97;61.49;101957.06;10437624;28;20021;-80
2022/04/03 18:19:55;;;;;;;3.95;2.17;;;;;;;3.82;62.85;101948.81;10480076;28;20055;-78
2022/04/03 18:24:58;;;;;;;5.28;2.55;;;;;;;3.73;63.68;101938.50;10469812;28;20068;-78
2022/04/03 18:29:59;;;;;;;7.40;3.65;;;;;;;3.63;64.30;101939.34;10472679;28;20208;-78
2022/04/03 18:35:01;;;;;;;5.00;2.85;;;;;;;3.59;64.14;101934.66;10461488;28;20020;-79
2022/04/03 18:40:04;;;;;;;5.45;2.92;;;;;;;3.56;63.92;101936.97;10473983;28;20025;-79
2022/04/03 18:45:04;;;;;;;;;;;;;;;3.50;64.27;101946.75;10488007;28;20035;-79
2022/04/03 18:50:05;;;;;;;4.13;3.35;;;;;;;3.47;65.07;101952.53;10483287;28;19916;-79
2022/04/03 18:55:06;;;;;;;4.28;2.38;;;;;;;3.40;65.68;101954.41;10445979;28;20091;-79
2022/04/03 19:00:07;;;;;;;4.55;3.55;;;;;;;3.22;66.80;101957.97;10481991;28;20044;-79
2022/04/03 19:05:07;;;;;;;4.80;2.65;;;;;;;2.97;67.65;101962.50;10460747;28;20087;-79
2022/04/03 19:10:08;;;;;;;4.10;3.05;;;;;;;2.69;68.33;101971.84;10476179;28;20085;-79
2022/04/03 19:15:09;;;;;;;4.45;3.33;;;;;;;2.48;69.67;101972.50;10463989;28;20082;-79
2022/04/03 19:20:10;;;;;;;4.13;3.10;;;;;;;2.26;69.88;101981.47;10471338;28;20029;-79
2022/04/03 19:25:12;;;;;;;4.90;3.50;;;;;;;2.10;70.30;101974.78;10461554;28;20041;-79
2022/04/03 19:30:19;;;;;;;4.40;3.33;;;;;;;1.90;70.30;101988.28;10452087;28;20029;-79
2022/04/03 19:35:20;;;;;;;7.75;3.65;;;;;;;1.65;71.79;101975.47;10455712;28;20129;-79
2022/04/03 19:40:21;;;;;;;5.22;3.60;;;;;;;1.31;72.77;101974.63;10496951;28;20044;-79
2022/04/03 19:45:22;;;;;;;4.88;3.67;;;;;;;1.06;73.52;101966.94;10457244;28;20414;-79
2022/04/03 19:50:22;;;;;;;9.73;4.50;;;;;;;0.84;75.55;101975.00;10463608;28;20044;-79
2022/04/03 19:55:23;;;;;;;6.60;4.25;;;;;;;0.76;74.59;101975.88;10457280;28;20032;-79
2022/04/03 20:00:26;;;;;;;5.70;4.93;;;;;;;0.52;74.65;101981.94;10477824;28;20128;-79
2022/04/03 20:05:32;;;;;;;7.30;4.38;;;;;;;0.32;76.88;101978.16;10488366;28;20166;-79
2022/04/03 20:10:32;;;;;;;8.32;4.32;;;;;;;0.06;77.46;101988.22;10472266;28;20035;-79
2022/04/03 20:15:35;;;;;;;7.68;4.15;;;;;;;-0.14;78.68;101986.09;10457138;28;20055;-79
2022/04/03 20:20:37;;;;;;;6.40;4.53;;;;;;;-0.29;79.51;101981.09;10457073;28;20032;-79
2022/04/03 20:25:37;;;;;;;7.78;5.00;;;;;;;-0.41;79.65;101978.09;10461100;28;20445;-78
2022/04/03 20:30:38;;;;;;;8.88;4.88;;;;;;;-0.57;80.41;101978.06;10482194;28;20063;-79
2022/04/03 20:35:39;;;;;;;8.60;5.67;;;;;;;-0.67;81.37;101970.09;10462039;28;20547;-79
2022/04/03 20:40:40;;;;;;;7.43;4.93;;;;;;;-0.70;81.58;101970.66;10477234;28;20085;-79
2022/04/03 20:45:40;;;;;;;8.27;5.05;;;;;;;-0.78;81.79;101969.81;10461531;28;20032;-79
2022/04/03 20:50:49;;;;;;;9.93;5.85;;;;;;;-0.85;81.93;101958.66;10477133;28;20032;-79
2022/04/03 20:55:50;;;;;;;8.20;5.65;;;;;;;-0.94;82.52;101966.28;10471588;28;20040;-79
2022/04/03 21:00:50;;;;;;;10.02;6.47;;;;;;;-1.12;82.72;101959.97;10470405;28;20058;-79
2022/04/03 21:05:51;;;;;;;8.35;5.75;;;;;;;-1.19;83.45;101961.88;10468483;28;20467;-78
2022/04/03 21:10:52;;;;;;;9.55;6.10;;;;;;;-1.28;83.76;101958.25;10473038;28;20032;-79
2022/04/03 21:15:53;;;;;;;13.20;7.45;;;;;;;-1.38;83.53;101955.41;10443402;28;20059;-79
2022/04/03 21:20:53;;;;;;;10.85;6.88;;;;;;;-1.46;84.34;101958.75;10475021;28;20123;-79
2022/04/03 21:25:54;;;;;;;10.43;6.85;;;;;;;-1.54;85.04;101951.09;10452250;28;20476;-79
2022/04/03 21:30:57;;;;;;;8.50;7.03;;;;;;;-1.59;85.19;101951.31;10450443;28;20056;-78
2022/04/03 21:35:58;;;;;;;15.20;7.82;;;;;;;-1.58;85.67;101943.78;10458977;28;20032;-79
2022/04/03 21:40:59;;;;;;;17.98;9.00;;;;;;;-1.64;85.37;101940.50;10471424;28;20075;-79
2022/04/03 21:46:00;;;;;;;14.32;7.85;;;;;;;-1.65;85.75;101929.34;10451519;28;20044;-79
2022/04/03 21:51:01;;;;;;;11.80;9.75;;;;;;;-1.66;85.83;101932.66;10470406;28;20128;-79
2022/04/03 21:56:02;;;;;;;16.00;11.38;;;;;;;-1.73;85.98;101918.94;10476993;28;20079;-79
2022/04/03 22:01:03;;;;;;;25.35;13.35;;;;;;;-1.84;85.99;101918.63;10468847;28;20111;-79
2022/04/03 22:06:04;;;;;;;17.02;11.60;;;;;;;-1.92;86.19;101916.84;10468577;28;20033;-78
2022/04/03 22:11:05;;;;;;;20.70;12.60;;;;;;;-1.99;87.05;101922.00;10452419;28;20028;-79
2022/04/03 22:16:06;;;;;;;17.30;12.75;;;;;;;-2.04;87.42;101916.34;10462461;28;20033;-79
2022/04/03 22:21:06;;;;;;;16.35;11.43;;;;;;;-2.09;87.16;101908.13;10458997;28;20403;-78
2022/04/03 22:26:07;;;;;;;16.33;9.90;;;;;;;-2.08;87.85;101920.22;10485690;28;20043;-78
2022/04/03 22:31:07;;;;;;;14.70;9.93;;;;;;;-2.10;87.73;101911.41;10482064;28;20027;-78
2022/04/03 22:36:08;;;;;;;12.77;8.82;;;;;;;-2.18;88.16;101912.19;10484690;28;20483;-78
2022/04/03 22:41:09;;;;;;;11.63;7.88;;;;;;;-2.30;87.89;101914.25;10493080;28;20128;-78
2022/04/03 22:46:09;;;;;;;15.55;8.55;;;;;;;-2.35;87.91;101910.25;10475800;28;20436;-78
2022/04/03 22:51:10;;;;;;;13.60;9.27;;;;;;;-2.42;88.50;101907.72;10483306;28;20071;-78
2022/04/03 22:56:12;;;;;;;16.13;9.23;;;;;;;-2.52;88.95;101895.47;10483253;28;20060;-78
2022/04/03 23:01:12;;;;;;;;;;;;;;;-2.54;89.36;101896.94;10460674;28;20032;-78
2022/04/03 23:06:13;;;;;;;15.60;10.27;;;;;;;-2.56;89.44;101893.28;10481417;28;19927;-79
2022/04/03 23:11:14;;;;;;;13.00;9.27;;;;;;;-2.46;89.70;101892.72;10481353;28;20029;-78
2022/04/03 23:16:14;;;;;;;12.85;8.80;;;;;;;-2.42;90.00;101890.66;10482609;28;20072;-79